sensor_id;sensor_type;location;lat;lon;timestamp;P1;durP1;ratioP1;P2;durP2;ratioP2
24451;SDS011;13350;50.984;5.822;2023-04-24T00:01:40;2.53;;;1.80;;
24451;SDS011;13350;50.984;5.822;2023-04-24T00:04:08;2.15;;;1.95;;
24451;SDS011;13350;50.984;5.822;2023-04-24T00:06:36;2.67;;;2.08;;
24451;SDS011;13350;50.984;5.822;2023-04-24T00:09:03;2.38;;;1.75;;
24451;SDS011;13350;50.984;5.822;2023-04-24T00:11:31;6.25;;;2.83;;
24451;SDS011;13350;50.984;5.822;2023-04-24T00:13:58;4.63;;;2.25;;
24451;SDS011;13350;50.984;5.822;2023-04-24T00:16:25;4.60;;;2.30;;
24451;SDS011;13350;50.984;5.822;2023-04-24T00:18:54;3.45;;;2.42;;
24451;SDS011;13350;50.984;5.822;2023-04-24T00:21:21;3.65;;;2.40;;
24451;SDS011;13350;50.984;5.822;2023-04-24T00:23:50;4.60;;;2.72;;
24451;SDS011;13350;50.984;5.822;2023-04-24T00:26:18;3.45;;;2.42;;
24451;SDS011;13350;50.984;5.822;2023-04-24T00:28:46;5.63;;;2.40;;
24451;SDS011;13350;50.984;5.822;2023-04-24T00:31:13;4.15;;;2.83;;
24451;SDS011;13350;50.984;5.822;2023-04-24T00:33:41;2.72;;;2.10;;
24451;SDS011;13350;50.984;5.822;2023-04-24T00:36:09;4.45;;;2.95;;
24451;SDS011;13350;50.984;5.822;2023-04-24T00:38:37;3.38;;;2.60;;
24451;SDS011;13350;50.984;5.822;2023-04-24T00:41:04;5.55;;;3.30;;
24451;SDS011;13350;50.984;5.822;2023-04-24T00:43:32;4.10;;;2.45;;
24451;SDS011;13350;50.984;5.822;2023-04-24T00:45:59;6.90;;;4.00;;
24451;SDS011;13350;50.984;5.822;2023-04-24T00:48:27;7.65;;;4.55;;
24451;SDS011;13350;50.984;5.822;2023-04-24T00:50:54;6.32;;;3.65;;
24451;SDS011;13350;50.984;5.822;2023-04-24T00:53:23;5.38;;;3.58;;
24451;SDS011;13350;50.984;5.822;2023-04-24T00:55:51;6.57;;;4.60;;
24451;SDS011;13350;50.984;5.822;2023-04-24T00:58:18;5.72;;;4.03;;
24451;SDS011;13350;50.984;5.822;2023-04-24T01:00:46;7.43;;;4.60;;
24451;SDS011;13350;50.984;5.822;2023-04-24T01:03:15;7.60;;;3.95;;
24451;SDS011;13350;50.984;5.822;2023-04-24T01:05:43;6.68;;;3.65;;
24451;SDS011;13350;50.984;5.822;2023-04-24T01:08:10;8.27;;;5.45;;
24451;SDS011;13350;50.984;5.822;2023-04-24T01:10:39;8.98;;;4.93;;
24451;SDS011;13350;50.984;5.822;2023-04-24T01:13:08;6.88;;;5.35;;
24451;SDS011;13350;50.984;5.822;2023-04-24T01:15:35;3.72;;;2.60;;
24451;SDS011;13350;50.984;5.822;2023-04-24T01:18:03;4.97;;;3.33;;
24451;SDS011;13350;50.984;5.822;2023-04-24T01:20:31;5.75;;;3.38;;
24451;SDS011;13350;50.984;5.822;2023-04-24T01:23:01;6.78;;;4.93;;
24451;SDS011;13350;50.984;5.822;2023-04-24T01:25:28;8.63;;;6.10;;
24451;SDS011;13350;50.984;5.822;2023-04-24T01:27:56;10.27;;;4.78;;
24451;SDS011;13350;50.984;5.822;2023-04-24T01:30:24;10.63;;;5.95;;
24451;SDS011;13350;50.984;5.822;2023-04-24T01:32:51;11.20;;;5.97;;
24451;SDS011;13350;50.984;5.822;2023-04-24T01:35:20;8.32;;;5.82;;
24451;SDS011;13350;50.984;5.822;2023-04-24T01:37:47;4.93;;;3.53;;
24451;SDS011;13350;50.984;5.822;2023-04-24T01:40:15;9.40;;;5.82;;
24451;SDS011;13350;50.984;5.822;2023-04-24T01:42:43;11.30;;;6.53;;
24451;SDS011;13350;50.984;5.822;2023-04-24T01:45:11;8.75;;;5.55;;
24451;SDS011;13350;50.984;5.822;2023-04-24T01:47:39;7.40;;;5.00;;
24451;SDS011;13350;50.984;5.822;2023-04-24T01:50:06;8.40;;;4.93;;
24451;SDS011;13350;50.984;5.822;2023-04-24T01:52:35;10.05;;;5.78;;
24451;SDS011;13350;50.984;5.822;2023-04-24T01:55:02;6.53;;;4.75;;
24451;SDS011;13350;50.984;5.822;2023-04-24T01:57:32;8.65;;;5.93;;
24451;SDS011;13350;50.984;5.822;2023-04-24T22:51:40;5.10;;;2.60;;
24451;SDS011;13350;50.984;5.822;2023-04-24T22:54:07;5.65;;;2.70;;
24451;SDS011;13350;50.984;5.822;2023-04-24T22:56:34;6.72;;;3.03;;
24451;SDS011;13350;50.984;5.822;2023-04-24T22:59:02;10.00;;;3.40;;
24451;SDS011;13350;50.984;5.822;2023-04-24T23:01:30;7.85;;;3.30;;
24451;SDS011;13350;50.984;5.822;2023-04-24T23:03:57;7.55;;;2.85;;
24451;SDS011;13350;50.984;5.822;2023-04-24T23:06:25;6.20;;;2.60;;
24451;SDS011;13350;50.984;5.822;2023-04-24T23:08:53;6.18;;;2.40;;
24451;SDS011;13350;50.984;5.822;2023-04-24T23:11:20;9.07;;;2.55;;
24451;SDS011;13350;50.984;5.822;2023-04-24T23:13:48;10.70;;;2.90;;
24451;SDS011;13350;50.984;5.822;2023-04-24T23:16:15;11.10;;;3.60;;
24451;SDS011;13350;50.984;5.822;2023-04-24T23:18:42;6.30;;;2.90;;
24451;SDS011;13350;50.984;5.822;2023-04-24T23:21:09;10.10;;;2.88;;
24451;SDS011;13350;50.984;5.822;2023-04-24T23:23:37;11.95;;;2.78;;
24451;SDS011;13350;50.984;5.822;2023-04-24T23:26:06;9.27;;;3.22;;
24451;SDS011;13350;50.984;5.822;2023-04-24T23:28:33;8.73;;;2.80;;
24451;SDS011;13350;50.984;5.822;2023-04-24T23:31:01;7.40;;;2.85;;
24451;SDS011;13350;50.984;5.822;2023-04-24T23:33:28;9.75;;;2.95;;
24451;SDS011;13350;50.984;5.822;2023-04-24T23:35:56;12.73;;;3.03;;
24451;SDS011;13350;50.984;5.822;2023-04-24T23:38:23;9.65;;;3.70;;
24451;SDS011;13350;50.984;5.822;2023-04-24T23:40:50;6.75;;;3.10;;
24451;SDS011;13350;50.984;5.822;2023-04-24T23:43:19;10.70;;;3.22;;
24451;SDS011;13350;50.984;5.822;2023-04-24T23:45:46;10.10;;;2.85;;
24451;SDS011;13350;50.984;5.822;2023-04-24T23:48:13;6.82;;;2.95;;
24451;SDS011;13350;50.984;5.822;2023-04-24T23:50:41;11.45;;;3.70;;
24451;SDS011;13350;50.984;5.822;2023-04-24T23:53:08;8.43;;;2.72;;
24451;SDS011;13350;50.984;5.822;2023-04-24T23:55:35;9.85;;;3.47;;
24451;SDS011;13350;50.984;5.822;2023-04-24T23:58:03;7.75;;;3.50;;
